Time;durP1;ratioP1;P1;durP2;ratioP2;P2;SDS_P1;SDS_P2;PMS_P1;PMS_P2;Temp;Humidity;BMP_temperature;BMP_pressure;BME280_temperature;BME280_humidity;BME280_pressure;Samples;Min_cycle;Max_cycle;Signal;HPM_P1;HPM_P2
2022/03/04 00:00:28;;;;;;;10.10;7.90;;;6.70;43.00;;;;;;5041846;28;20197;-77
2022/03/04 00:02:55;;;;;;;9.10;7.93;;;6.70;43.00;;;;;;5026607;28;20180;-77
2022/03/04 00:05:20;;;;;;;9.57;8.23;;;6.70;43.10;;;;;;5043076;28;21112;-77
2022/03/04 00:07:46;;;;;;;11.93;9.20;;;6.70;43.30;;;;;;5024774;28;20222;-77
2022/03/04 00:10:12;;;;;;;8.37;6.87;;;6.70;43.40;;;;;;5039088;28;20546;-77
2022/03/04 00:12:37;;;;;;;8.63;7.77;;;6.60;43.30;;;;;;5044225;28;20215;-77
2022/03/04 00:15:04;;;;;;;9.00;8.00;;;6.60;43.20;;;;;;5044586;28;20205;-77
2022/03/04 00:17:30;;;;;;;10.23;8.30;;;6.60;43.40;;;;;;5045956;28;20228;-77
2022/03/04 00:19:55;;;;;;;9.17;6.93;;;6.60;43.90;;;;;;5022735;28;20220;-77
2022/03/04 00:22:21;;;;;;;12.23;9.60;;;6.60;43.90;;;;;;5042552;28;20196;-77
2022/03/04 00:24:47;;;;;;;13.97;9.60;;;6.50;46.20;;;;;;5043401;28;20581;-77
2022/03/04 00:27:13;;;;;;;11.03;7.93;;;6.50;44.90;;;;;;5040329;28;20177;-77
2022/03/04 00:29:39;;;;;;;12.47;8.37;;;6.50;44.60;;;;;;5043973;28;20592;-77
2022/03/04 00:32:04;;;;;;;13.97;8.80;;;6.50;44.00;;;;;;5004668;28;20641;-77
2022/03/04 00:34:30;;;;;;;10.97;8.20;;;6.40;44.80;;;;;;5042477;28;20267;-77
2022/03/04 00:36:56;;;;;;;11.15;8.88;;;6.40;44.40;;;;;;5042243;28;20667;-77
2022/03/04 00:39:23;;;;;;;10.33;7.97;;;6.40;45.50;;;;;;5040872;28;20180;-77
2022/03/04 00:41:49;;;;;;;12.43;9.15;;;6.40;45.10;;;;;;5039161;28;20635;-77
2022/03/04 00:44:14;;;;;;;9.67;8.27;;;6.40;44.30;;;;;;5041612;28;20224;-77
2022/03/04 00:46:41;;;;;;;10.00;8.37;;;6.30;45.50;;;;;;5044380;28;20238;-77
2022/03/04 00:49:06;;;;;;;9.65;7.90;;;6.30;45.50;;;;;;5023248;28;21166;-77
2022/03/04 00:51:32;;;;;;;12.50;7.90;;;6.20;44.60;;;;;;5044787;28;20213;-77
2022/03/04 00:53:58;;;;;;;13.90;8.93;;;6.30;44.50;;;;;;5049856;28;20227;-77
2022/03/04 00:56:24;;;;;;;11.63;9.23;;;6.20;44.30;;;;;;5041779;28;20177;-77
2022/03/04 00:58:51;;;;;;;12.05;8.07;;;6.20;44.80;;;;;;5043737;28;20908;-77
2022/03/04 01:01:17;;;;;;;13.13;9.60;;;6.20;45.60;;;;;;5042061;28;20292;-76
2022/03/04 01:03:43;;;;;;;10.40;8.20;;;6.20;45.70;;;;;;5035259;28;20534;-77
2022/03/04 01:06:09;;;;;;;14.10;10.00;;;6.10;44.80;;;;;;5043104;28;20211;-77
2022/03/04 01:08:34;;;;;;;11.60;8.03;;;6.10;44.70;;;;;;5039275;28;20584;-77
2022/03/04 01:11:00;;;;;;;10.93;7.90;;;6.10;44.70;;;;;;5043896;28;20249;-77
2022/03/04 01:13:26;;;;;;;11.07;8.48;;;6.00;44.70;;;;;;5041472;28;20168;-77
2022/03/04 01:15:54;;;;;;;12.70;9.57;;;6.00;45.30;;;;;;5042783;28;20180;-77
2022/03/04 01:18:20;;;;;;;12.90;9.35;;;6.00;45.30;;;;;;5044897;28;20708;-76
2022/03/04 01:20:46;;;;;;;8.98;7.40;;;6.00;45.80;;;;;;5021451;28;20232;-77
2022/03/04 01:23:12;;;;;;;9.93;8.73;;;6.00;45.80;;;;;;5040262;28;20549;-77
2022/03/04 01:25:38;;;;;;;15.90;8.30;;;5.90;45.70;;;;;;5042871;28;20717;-77
2022/03/04 01:28:03;;;;;;;10.90;8.67;;;5.90;45.80;;;;;;5041262;28;21170;-77
2022/03/04 01:30:30;;;;;;;9.57;7.90;;;5.90;45.70;;;;;;5045477;28;20258;-77
2022/03/04 01:32:55;;;;;;;9.30;8.10;;;5.90;45.70;;;;;;5038750;28;20181;-77
2022/03/04 01:35:21;;;;;;;9.77;8.17;;;5.90;45.80;;;;;;5042190;28;20572;-76
2022/03/04 01:37:47;;;;;;;11.43;8.15;;;5.90;45.50;;;;;;5039382;28;20197;-77
2022/03/04 01:40:14;;;;;;;12.32;9.48;;;5.90;46.30;;;;;;5042024;28;20238;-77
2022/03/04 01:42:40;;;;;;;14.98;9.85;;;5.90;47.20;;;;;;5042346;28;20188;-76
2022/03/04 01:45:08;;;;;;;9.63;8.30;;;5.80;47.10;;;;;;5041256;28;20319;-76
2022/03/04 01:47:39;;;;;;;13.52;10.43;;;5.80;47.20;;;;;;5038840;28;21246;-76
2022/03/04 01:50:06;;;;;;;11.02;8.35;;;5.80;48.10;;;;;;5017912;28;20186;-77
2022/03/04 01:52:32;;;;;;;11.27;8.40;;;5.80;46.50;;;;;;5040840;28;20299;-76
2022/03/04 01:54:57;;;;;;;11.40;8.50;;;5.80;47.50;;;;;;5041992;28;20272;-77
2022/03/04 01:57:23;;;;;;;10.23;7.77;;;5.80;48.00;;;;;;5039470;28;20192;-76
2022/03/04 01:59:49;;;;;;;11.20;8.00;;;5.80;47.10;;;;;;5041333;28;20238;-76
2022/03/04 02:02:14;;;;;;;10.50;7.97;;;5.80;46.40;;;;;;5043017;28;20197;-77
2022/03/04 02:04:42;;;;;;;10.35;9.00;;;5.80;46.50;;;;;;5043510;28;20180;-76
2022/03/04 02:07:08;;;;;;;13.70;9.40;;;5.70;46.70;;;;;;5044540;28;20220;-77
2022/03/04 02:09:34;;;;;;;11.70;9.07;;;5.70;46.80;;;;;;5043021;28;20189;-77
2022/03/04 02:12:00;;;;;;;12.30;8.93;;;5.60;47.60;;;;;;5036586;28;20211;-76
2022/03/04 02:14:26;;;;;;;9.63;8.10;;;5.60;47.00;;;;;;5041154;28;20276;-76
2022/03/04 02:16:54;;;;;;;10.57;8.87;;;5.60;47.10;;;;;;5045867;28;20169;-77
2022/03/04 02:19:21;;;;;;;11.10;9.10;;;5.60;47.40;;;;;;5039139;28;21005;-77
2022/03/04 02:21:53;;;;;;;12.18;9.07;;;5.50;48.10;;;;;;5045622;28;20199;-77
2022/03/04 02:24:20;;;;;;;9.27;7.72;;;5.50;47.30;;;;;;5046367;28;20187;-76
2022/03/04 02:26:45;;;;;;;10.02;8.70;;;5.50;47.50;;;;;;5046780;28;20292;-75
2022/03/04 02:29:12;;;;;;;11.20;9.53;;;5.50;47.90;;;;;;5043862;28;20260;-76
2022/03/04 02:31:39;;;;;;;11.77;8.98;;;5.40;48.10;;;;;;5045683;28;20745;-76
2022/03/04 02:34:06;;;;;;;9.93;8.00;;;5.40;47.10;;;;;;5025385;28;20239;-76
2022/03/04 02:36:33;;;;;;;10.18;8.25;;;5.40;47.30;;;;;;5044436;28;20267;-76
2022/03/04 02:38:59;;;;;;;11.82;8.70;;;5.40;47.20;;;;;;5044205;28;20179;-76
2022/03/04 02:41:24;;;;;;;9.80;7.68;;;5.40;47.10;;;;;;5041882;28;20193;-76
2022/03/04 02:43:50;;;;;;;9.13;8.10;;;5.30;46.90;;;;;;5042781;28;20185;-77
2022/03/04 02:46:16;;;;;;;10.73;8.27;;;5.30;47.40;;;;;;5048104;28;20218;-78
2022/03/04 02:48:45;;;;;;;11.05;9.02;;;5.30;47.20;;;;;;5044554;28;20185;-76
2022/03/04 02:51:11;;;;;;;11.75;8.13;;;5.30;48.30;;;;;;5045090;28;20224;-77
2022/03/04 02:53:36;;;;;;;10.13;7.88;;;5.20;47.20;;;;;;5043996;28;20174;-77
2022/03/04 02:56:03;;;;;;;8.70;7.70;;;5.20;47.20;;;;;;5028195;28;20177;-76
2022/03/04 02:58:28;;;;;;;9.00;7.22;;;5.20;47.40;;;;;;5041382;28;20946;-76
2022/03/04 03:00:55;;;;;;;13.60;10.43;;;5.20;47.30;;;;;;5045073;28;20192;-76
2022/03/04 03:03:21;;;;;;;13.57;8.23;;;5.10;48.10;;;;;;5043873;28;20170;-75
2022/03/04 03:05:47;;;;;;;12.30;9.07;;;5.10;47.90;;;;;;5043401;28;20200;-76
2022/03/04 03:08:13;;;;;;;11.70;9.10;;;5.10;48.20;;;;;;5044882;28;20213;-75
2022/03/04 03:10:39;;;;;;;9.05;7.85;;;5.10;47.80;;;;;;5042377;28;20611;-75
2022/03/04 03:13:05;;;;;;;13.23;8.83;;;5.10;47.70;;;;;;5045734;28;20967;-75
2022/03/04 03:15:31;;;;;;;11.07;7.70;;;5.10;47.80;;;;;;5041361;28;20174;-75
2022/03/04 03:17:57;;;;;;;10.63;9.53;;;5.10;47.60;;;;;;5043721;28;20176;-75
2022/03/04 03:20:23;;;;;;;10.60;8.37;;;5.10;47.50;;;;;;5043525;28;20223;-75
2022/03/04 03:22:48;;;;;;;9.97;8.07;;;5.10;47.70;;;;;;5046892;28;20205;-76
2022/03/04 03:25:15;;;;;;;10.40;8.30;;;5.00;47.80;;;;;;5045467;28;20585;-76
2022/03/04 03:27:41;;;;;;;9.70;8.10;;;5.00;48.00;;;;;;5042286;28;20181;-76
2022/03/04 03:30:08;;;;;;;12.27;9.23;;;5.00;47.80;;;;;;5043897;28;20219;-76
2022/03/04 03:32:34;;;;;;;10.35;7.72;;;5.00;48.90;;;;;;5041361;28;20763;-76
2022/03/04 03:35:00;;;;;;;12.43;8.70;;;5.00;48.30;;;;;;5044098;28;20203;-76
2022/03/04 03:37:26;;;;;;;11.35;8.60;;;5.00;48.10;;;;;;5043767;28;20548;-76
2022/03/04 03:39:52;;;;;;;9.43;8.40;;;4.90;48.30;;;;;;5023780;28;20176;-76
2022/03/04 03:42:18;;;;;;;11.05;8.70;;;4.90;50.00;;;;;;5051872;28;20750;-76
2022/03/04 03:44:44;;;;;;;11.37;9.53;;;4.90;49.60;;;;;;5041606;28;20181;-76
2022/03/04 03:47:10;;;;;;;10.07;8.13;;;4.90;48.70;;;;;;5044884;28;20563;-76
2022/03/04 03:49:36;;;;;;;8.70;7.80;;;4.90;48.80;;;;;;5040892;28;20214;-76
2022/03/04 03:52:03;;;;;;;14.82;9.88;;;4.90;48.90;;;;;;5041833;28;20715;-76
2022/03/04 03:54:28;;;;;;;10.88;8.50;;;4.90;50.60;;;;;;5042481;28;20182;-76
2022/03/04 03:56:54;;;;;;;12.70;9.30;;;4.90;49.10;;;;;;5042394;28;20177;-76
2022/03/04 03:59:20;;;;;;;11.27;9.07;;;4.90;49.20;;;;;;5047862;28;20177;-76
2022/03/04 04:01:45;;;;;;;14.30;9.50;;;4.90;49.50;;;;;;5041506;28;20544;-76
2022/03/04 04:04:12;;;;;;;12.47;9.50;;;4.90;49.90;;;;;;5026762;28;20188;-76
2022/03/04 04:06:39;;;;;;;11.35;9.10;;;4.90;49.10;;;;;;5041284;28;20263;-76
2022/03/04 04:09:06;;;;;;;12.07;10.35;;;4.90;49.10;;;;;;5025274;28;20192;-76
2022/03/04 04:11:35;;;;;;;13.50;10.93;;;4.80;49.50;;;;;;5043352;28;20266;-76
2022/03/04 04:14:09;;;;;;;11.73;10.25;;;4.80;50.50;;;;;;5039874;28;20184;-76
2022/03/04 04:16:35;;;;;;;12.00;9.20;;;4.80;50.70;;;;;;5041803;28;20182;-76
2022/03/04 04:19:01;;;;;;;11.57;8.80;;;4.80;49.40;;;;;;5041463;28;20181;-76
2022/03/04 04:21:27;;;;;;;13.48;10.50;;;4.80;49.20;;;;;;5025768;28;20669;-76
2022/03/04 04:23:54;;;;;;;15.98;10.57;;;4.80;49.70;;;;;;5042226;28;20169;-76
2022/03/04 04:26:20;;;;;;;11.77;8.70;;;4.80;51.10;;;;;;5038079;28;20787;-76
2022/03/04 04:28:46;;;;;;;15.13;10.02;;;4.80;50.00;;;;;;5046203;28;20208;-75
2022/03/04 04:31:12;;;;;;;15.00;10.10;;;4.80;50.60;;;;;;5044056;28;20272;-76
2022/03/04 04:33:38;;;;;;;9.77;7.23;;;4.80;50.50;;;;;;5043259;28;20581;-76
2022/03/04 04:36:04;;;;;;;10.47;8.40;;;4.80;50.10;;;;;;5048934;28;20579;-76
2022/03/04 04:38:29;;;;;;;9.87;8.07;;;4.80;50.10;;;;;;5047019;28;20610;-76
2022/03/04 04:40:55;;;;;;;13.17;8.20;;;4.80;49.80;;;;;;5044607;28;20972;-75
2022/03/04 04:43:22;;;;;;;9.60;8.20;;;4.70;49.60;;;;;;5047937;28;20184;-76
2022/03/04 04:45:47;;;;;;;12.70;9.00;;;4.70;50.40;;;;;;5034526;28;20650;-76
2022/03/04 04:48:14;;;;;;;12.27;9.23;;;4.70;51.70;;;;;;5049542;28;20189;-76
2022/03/04 04:50:39;;;;;;;11.25;8.90;;;4.70;51.10;;;;;;5050805;28;20239;-76
2022/03/04 04:53:05;;;;;;;10.70;8.37;;;4.70;50.70;;;;;;5054022;28;20183;-76
2022/03/04 04:55:31;;;;;;;11.90;8.70;;;4.70;50.10;;;;;;5031634;28;20238;-76
2022/03/04 04:57:57;;;;;;;11.03;9.20;;;4.70;51.10;;;;;;5043096;28;20592;-76
2022/03/04 05:00:22;;;;;;;11.53;8.87;;;4.70;51.10;;;;;;5040472;28;20170;-76
2022/03/04 05:02:48;;;;;;;10.23;7.90;;;4.70;51.10;;;;;;5042528;28;20586;-76
2022/03/04 05:05:14;;;;;;;15.97;10.57;;;4.60;50.30;;;;;;5040872;28;20182;-76
2022/03/04 05:07:39;;;;;;;11.03;8.83;;;4.60;52.90;;;;;;5042632;28;20195;-76
2022/03/04 05:10:06;;;;;;;12.57;9.33;;;4.60;51.10;;;;;;5043599;28;20184;-75
2022/03/04 05:12:32;;;;;;;13.23;10.10;;;4.60;51.40;;;;;;5042819;28;20214;-76
2022/03/04 05:14:58;;;;;;;14.50;10.10;;;4.60;51.00;;;;;;5044063;28;20192;-76
2022/03/04 05:17:24;;;;;;;13.18;8.50;;;4.60;50.90;;;;;;5042992;28;21014;-76
2022/03/04 05:19:50;;;;;;;10.55;7.55;;;4.60;51.00;;;;;;5039448;28;20251;-76
2022/03/04 05:22:16;;;;;;;12.48;8.20;;;4.60;51.00;;;;;;5025889;28;20193;-76
2022/03/04 05:24:43;;;;;;;14.80;10.40;;;4.60;50.90;;;;;;5039431;28;20184;-76
2022/03/04 05:27:09;;;;;;;14.35;9.50;;;4.60;50.90;;;;;;5024832;28;20188;-76
2022/03/04 05:29:35;;;;;;;13.20;10.37;;;4.50;51.20;;;;;;5043340;28;20184;-76
2022/03/04 05:32:01;;;;;;;11.90;9.00;;;4.50;51.40;;;;;;5039785;28;20721;-75
2022/03/04 05:34:27;;;;;;;12.82;8.57;;;4.60;51.30;;;;;;5042472;28;20176;-76
2022/03/04 05:36:53;;;;;;;11.57;8.70;;;4.60;51.40;;;;;;5039369;28;20717;-76
2022/03/04 05:39:19;;;;;;;11.05;8.65;;;4.50;52.10;;;;;;5041773;28;20208;-76
2022/03/04 05:41:45;;;;;;;9.80;7.60;;;4.50;51.60;;;;;;5037376;28;20196;-76
2022/03/04 05:44:11;;;;;;;10.40;7.07;;;4.50;51.40;;;;;;5038998;28;20184;-76
2022/03/04 05:46:36;;;;;;;12.60;9.60;;;4.50;51.20;;;;;;5024270;28;20661;-75
2022/03/04 05:49:02;;;;;;;11.87;8.70;;;4.50;52.30;;;;;;5036848;28;20638;-75
2022/03/04 05:51:29;;;;;;;12.23;8.50;;;4.50;52.00;;;;;;5040569;28;20197;-76
2022/03/04 05:53:55;;;;;;;15.27;10.70;;;4.50;51.50;;;;;;5039649;28;20174;-75
2022/03/04 05:56:22;;;;;;;11.75;8.70;;;4.50;52.10;;;;;;5022657;28;20185;-76
2022/03/04 05:58:48;;;;;;;12.60;9.73;;;4.50;51.60;;;;;;5036642;28;20177;-76
2022/03/04 06:01:14;;;;;;;11.77;9.33;;;4.40;52.10;;;;;;5022139;28;20658;-77
2022/03/04 06:03:40;;;;;;;10.95;8.07;;;4.40;52.80;;;;;;5039971;28;20192;-77
2022/03/04 06:06:06;;;;;;;10.45;7.53;;;4.40;51.90;;;;;;5049320;28;20200;-78
2022/03/04 06:08:32;;;;;;;13.13;8.70;;;4.50;51.60;;;;;;5021463;28;20185;-77
2022/03/04 06:10:58;;;;;;;10.77;7.75;;;4.40;51.50;;;;;;5042984;28;20709;-77
2022/03/04 06:13:24;;;;;;;11.60;8.53;;;4.40;51.50;;;;;;5042705;28;20176;-77
2022/03/04 06:15:50;;;;;;;11.10;8.50;;;4.40;52.00;;;;;;5040305;28;20580;-77
2022/03/04 06:18:16;;;;;;;12.90;8.52;;;4.40;51.90;;;;;;5036576;28;20170;-78
2022/03/04 06:20:42;;;;;;;10.10;8.53;;;4.40;51.90;;;;;;5040817;28;20190;-77
2022/03/04 06:23:08;;;;;;;11.20;9.40;;;4.40;52.50;;;;;;5047326;28;20728;-77
2022/03/04 06:25:34;;;;;;;11.20;9.13;;;4.40;52.60;;;;;;5046295;28;20581;-77
2022/03/04 06:28:02;;;;;;;11.27;8.80;;;4.40;52.10;;;;;;5049980;28;20181;-78
2022/03/04 06:30:31;;;;;;;14.38;10.07;;;4.40;52.20;;;;;;5044830;28;20181;-77
2022/03/04 06:35:43;;;;;;;11.23;9.10;;;4.40;52.60;;;;;;5044912;28;20169;-77
2022/03/04 06:38:09;;;;;;;13.80;10.05;;;4.40;52.30;;;;;;5044760;28;20174;-77
2022/03/04 06:40:36;;;;;;;12.57;9.00;;;4.40;53.00;;;;;;5048305;28;20186;-77
2022/03/04 06:43:03;;;;;;;13.32;9.93;;;4.40;52.70;;;;;;5043750;28;20188;-77
2022/03/04 06:45:28;;;;;;;12.27;7.82;;;4.40;53.40;;;;;;5043191;28;20775;-77
2022/03/04 06:47:55;;;;;;;10.88;7.90;;;4.40;52.80;;;;;;5044943;28;20196;-76
2022/03/04 06:50:20;;;;;;;10.50;8.37;;;4.40;52.60;;;;;;5047165;28;20634;-77
2022/03/04 06:52:47;;;;;;;10.23;8.07;;;4.40;52.70;;;;;;5045867;28;20699;-77
2022/03/04 06:55:12;;;;;;;14.10;9.87;;;4.50;52.70;;;;;;5044067;28;20184;-77
2022/03/04 06:57:39;;;;;;;12.33;10.23;;;4.40;53.10;;;;;;5051013;28;20177;-76
2022/03/04 07:00:10;;;;;;;16.83;11.00;;;4.50;54.40;;;;;;5046419;28;20273;-77
2022/03/04 07:02:37;;;;;;;16.15;11.07;;;4.50;53.80;;;;;;5047871;28;20191;-77
2022/03/04 07:05:05;;;;;;;15.20;10.73;;;4.50;53.60;;;;;;5044731;28;20178;-77
2022/03/04 07:07:31;;;;;;;15.70;11.43;;;4.50;53.80;;;;;;5031807;28;20279;-77
2022/03/04 07:09:56;;;;;;;11.57;9.87;;;4.60;53.80;;;;;;5045767;28;20224;-77
2022/03/04 07:12:22;;;;;;;14.20;10.13;;;4.60;54.80;;;;;;5044527;28;21252;-77
2022/03/04 07:14:48;;;;;;;14.13;9.80;;;4.60;54.50;;;;;;5045774;28;20188;-76
2022/03/04 07:17:14;;;;;;;15.17;9.83;;;4.60;54.50;;;;;;5025675;28;20178;-76
2022/03/04 07:19:40;;;;;;;14.68;11.10;;;4.70;54.00;;;;;;5030053;28;20180;-77
2022/03/04 07:22:06;;;;;;;17.77;10.32;;;4.70;54.00;;;;;;5043781;28;20193;-77
2022/03/04 07:24:32;;;;;;;13.77;11.33;;;4.70;54.10;;;;;;5043855;28;20643;-77
2022/03/04 07:26:58;;;;;;;17.02;12.02;;;4.80;55.20;;;;;;5043340;28;20599;-77
2022/03/04 07:29:25;;;;;;;16.13;11.33;;;4.80;54.40;;;;;;5048911;28;20181;-77
2022/03/04 07:31:53;;;;;;;14.55;10.18;;;4.90;54.50;;;;;;5050451;28;20632;-77
2022/03/04 07:34:20;;;;;;;16.40;10.88;;;4.90;54.80;;;;;;5044566;28;20184;-77
2022/03/04 07:36:46;;;;;;;17.08;12.10;;;5.00;55.00;;;;;;5049189;28;20173;-76
2022/03/04 07:39:12;;;;;;;15.43;10.80;;;5.10;55.20;;;;;;5026086;28;20166;-77
2022/03/04 07:41:38;;;;;;;16.92;11.23;;;5.10;55.90;;;;;;5042307;28;20240;-75
2022/03/04 07:44:04;;;;;;;15.90;10.75;;;5.20;55.20;;;;;;5049482;28;20177;-76
2022/03/04 07:46:30;;;;;;;12.25;9.80;;;5.20;55.30;;;;;;5045007;28;20189;-76
2022/03/04 07:48:57;;;;;;;16.88;10.88;;;5.30;55.00;;;;;;5041086;28;20276;-76
2022/03/04 07:51:23;;;;;;;13.48;9.65;;;5.40;55.00;;;;;;5043125;28;20200;-76
2022/03/04 07:53:49;;;;;;;17.58;12.77;;;5.50;55.00;;;;;;5043942;28;20547;-77
2022/03/04 07:56:14;;;;;;;19.37;12.50;;;5.50;55.70;;;;;;5025642;28;20174;-76
2022/03/04 07:58:40;;;;;;;11.87;10.17;;;5.60;55.90;;;;;;5041469;28;20618;-76
2022/03/04 08:01:07;;;;;;;12.38;9.70;;;5.70;55.30;;;;;;5044247;28;20276;-76
2022/03/04 08:03:33;;;;;;;14.85;10.10;;;5.80;55.30;;;;;;5023756;28;20189;-77
2022/03/04 08:05:58;;;;;;;15.23;11.90;;;5.90;55.30;;;;;;5027046;28;20187;-77
2022/03/04 08:08:24;;;;;;;15.60;11.50;;;6.00;56.40;;;;;;5042294;28;20174;-77
2022/03/04 08:10:50;;;;;;;17.05;12.65;;;6.10;55.60;;;;;;5041782;28;20623;-76
2022/03/04 08:13:16;;;;;;;18.70;12.47;;;6.20;56.50;;;;;;5043154;28;20181;-77
2022/03/04 08:15:42;;;;;;;18.07;13.50;;;6.30;55.70;;;;;;5044330;28;20188;-76
2022/03/04 08:18:07;;;;;;;17.17;12.50;;;6.50;56.10;;;;;;5045154;28;20184;-77
2022/03/04 08:20:33;;;;;;;17.90;12.23;;;7.00;56.30;;;;;;5043309;28;20265;-77
2022/03/04 08:22:59;;;;;;;14.87;11.90;;;7.70;57.10;;;;;;5042264;28;21091;-77
2022/03/04 08:25:25;;;;;;;18.10;13.93;;;8.50;57.80;;;;;;5046121;28;20584;-76
2022/03/04 08:27:51;;;;;;;15.63;12.20;;;9.30;57.40;;;;;;5042842;28;20185;-76
2022/03/04 08:30:17;;;;;;;17.00;13.97;;;10.20;57.30;;;;;;5042616;28;20672;-77
2022/03/04 08:32:42;;;;;;;15.60;13.57;;;11.10;56.70;;;;;;5043404;28;20615;-77
2022/03/04 08:35:09;;;;;;;13.83;11.50;;;11.90;56.50;;;;;;5040259;28;20196;-76
2022/03/04 08:37:35;;;;;;;13.67;12.00;;;12.70;55.70;;;;;;5042659;28;21166;-76
2022/03/04 08:40:04;;;;;;;14.40;11.90;;;13.70;55.90;;;;;;5039708;28;20591;-77
2022/03/04 08:42:30;;;;;;;12.70;11.40;;;14.60;55.20;;;;;;5024614;28;21209;-76
2022/03/04 08:44:56;;;;;;;13.83;12.17;;;15.30;54.60;;;;;;5041279;28;20596;-77
2022/03/04 08:47:22;;;;;;;15.03;12.50;;;15.90;53.40;;;;;;5040296;28;21049;-75
2022/03/04 08:49:48;;;;;;;14.57;13.10;;;16.40;51.40;;;;;;5042314;28;20525;-75
2022/03/04 08:52:14;;;;;;;13.57;12.27;;;16.80;50.20;;;;;;5042791;28;20220;-75
2022/03/04 08:54:40;;;;;;;13.23;11.93;;;17.20;51.20;;;;;;5042895;28;20579;-76
2022/03/04 08:57:05;;;;;;;14.23;11.17;;;17.80;51.00;;;;;;5043358;28;20580;-76
2022/03/04 08:59:32;;;;;;;13.63;12.33;;;18.10;50.50;;;;;;5043081;28;20181;-75
2022/03/04 09:01:57;;;;;;;14.73;13.20;;;18.50;48.40;;;;;;5042157;28;20615;-75
2022/03/04 09:04:24;;;;;;;15.27;13.77;;;18.90;48.30;;;;;;5039706;28;21159;-76
2022/03/04 09:06:49;;;;;;;16.50;14.90;;;18.90;45.00;;;;;;5042454;28;20181;-76
2022/03/04 09:09:16;;;;;;;15.20;13.60;;;19.00;45.90;;;;;;5019286;28;20915;-75
2022/03/04 09:11:42;;;;;;;13.97;11.87;;;19.10;45.90;;;;;;5036676;28;20718;-74
2022/03/04 09:14:08;;;;;;;14.90;13.30;;;19.30;46.50;;;;;;5041302;28;20227;-75
2022/03/04 09:16:34;;;;;;;16.07;14.47;;;19.50;44.90;;;;;;5024442;28;20667;-75
2022/03/04 09:19:00;;;;;;;17.57;15.87;;;19.40;42.90;;;;;;5040259;28;20806;-75
2022/03/04 09:21:26;;;;;;;18.13;16.33;;;18.60;40.60;;;;;;5041304;28;20287;-75
2022/03/04 09:23:53;;;;;;;16.70;14.40;;;18.30;41.20;;;;;;5039108;28;20631;-76
2022/03/04 09:26:19;;;;;;;15.80;14.20;;;18.20;41.90;;;;;;5042663;28;20587;-75
2022/03/04 09:28:45;;;;;;;15.03;13.60;;;18.00;40.80;;;;;;5039710;28;20587;-76
2022/03/04 09:31:10;;;;;;;14.80;13.30;;;18.00;42.30;;;;;;5039776;28;20771;-75
2022/03/04 09:33:36;;;;;;;13.90;12.60;;;18.20;43.00;;;;;;5041531;28;20583;-75
2022/03/04 09:36:03;;;;;;;14.93;13.33;;;18.50;43.50;;;;;;5043121;28;20601;-75
2022/03/04 09:38:29;;;;;;;14.20;12.70;;;18.70;41.90;;;;;;5039539;28;20924;-76
2022/03/04 09:40:55;;;;;;;12.97;11.63;;;19.00;44.00;;;;;;5042500;28;20603;-75
2022/03/04 09:43:23;;;;;;;13.53;12.33;;;19.70;45.00;;;;;;5040538;28;20235;-76
2022/03/04 09:45:50;;;;;;;17.53;15.40;;;20.30;43.90;;;;;;5023199;28;20706;-76
2022/03/04 09:48:17;;;;;;;17.57;15.63;;;20.70;43.30;;;;;;5041986;28;20584;-75
2022/03/04 09:50:46;;;;;;;14.67;13.17;;;20.90;41.90;;;;;;5039205;28;20670;-75
2022/03/04 09:53:12;;;;;;;14.50;13.10;;;20.80;41.70;;;;;;5032429;28;20987;-75
2022/03/04 09:55:39;;;;;;;14.80;13.40;;;20.90;42.00;;;;;;5042027;28;20952;-75
2022/03/04 09:58:16;;;;;;;16.07;14.50;;;21.00;41.50;;;;;;5039762;28;20929;-75
2022/03/04 10:00:43;;;;;;;14.40;13.10;;;21.10;41.30;;;;;;5037613;28;20603;-76
2022/03/04 10:03:28;;;;;;;15.63;14.07;;;21.20;41.70;;;;;;5043119;28;20576;-77
2022/03/04 10:05:55;;;;;;;16.70;15.00;;;21.40;40.70;;;;;;5040027;28;20603;-76
2022/03/04 10:08:22;;;;;;;14.43;13.17;;;21.20;40.00;;;;;;5025629;28;20944;-76
2022/03/04 10:10:53;;;;;;;17.77;15.87;;;21.20;40.70;;;;;;5039205;28;20615;-76
2022/03/04 10:13:43;;;;;;;17.53;15.73;;;21.20;38.90;;;;;;5044218;28;20586;-76
2022/03/04 10:16:12;;;;;;;15.57;14.17;;;21.10;39.20;;;;;;5041051;28;20571;-75
2022/03/04 10:18:37;;;;;;;15.80;14.23;;;21.10;39.40;;;;;;5038122;28;20587;-75
2022/03/04 10:21:04;;;;;;;20.90;15.97;;;21.10;39.60;;;;;;5042734;28;20612;-75
2022/03/04 10:23:30;;;;;;;14.93;13.53;;;21.20;39.50;;;;;;5040946;28;21119;-75
2022/03/04 10:25:58;;;;;;;17.37;15.37;;;21.40;39.90;;;;;;5039147;28;20579;-75
2022/03/04 10:28:27;;;;;;;17.33;15.40;;;21.50;39.20;;;;;;5035404;28;20644;-75
2022/03/04 10:30:55;;;;;;;15.57;14.10;;;21.60;38.80;;;;;;5041363;28;20636;-75
2022/03/04 10:33:25;;;;;;;15.23;13.67;;;21.50;38.30;;;;;;5038862;28;20581;-76
2022/03/04 10:36:08;;;;;;;14.83;13.43;;;21.40;38.60;;;;;;5037548;28;20588;-76
2022/03/04 10:38:35;;;;;;;16.63;14.83;;;21.20;38.60;;;;;;5038750;28;21157;-76
2022/03/04 10:41:00;;;;;;;16.73;15.23;;;20.90;37.70;;;;;;5046513;28;20647;-75
2022/03/04 10:43:31;;;;;;;18.20;16.40;;;20.30;37.50;;;;;;5043370;28;20578;-75
2022/03/04 10:46:03;;;;;;;15.93;14.33;;;19.60;36.20;;;;;;5045912;28;20673;-75
2022/03/04 10:48:31;;;;;;;15.73;13.97;;;19.00;36.70;;;;;;5043299;28;20579;-76
2022/03/04 10:50:59;;;;;;;14.93;13.50;;;18.50;37.20;;;;;;5045856;28;20651;-75
2022/03/04 10:53:30;;;;;;;15.20;13.60;;;18.40;37.90;;;;;;5042346;28;20587;-75
2022/03/04 10:55:58;;;;;;;14.47;12.90;;;18.30;38.10;;;;;;5046133;28;20945;-75
2022/03/04 10:58:25;;;;;;;14.70;13.23;;;18.30;38.90;;;;;;5043204;28;20644;-75
2022/03/04 11:00:53;;;;;;;15.53;13.80;;;18.70;39.80;;;;;;5042895;28;20714;-75
2022/03/04 11:03:21;;;;;;;16.50;15.00;;;19.10;39.60;;;;;;5040832;28;20583;-75
2022/03/04 11:05:49;;;;;;;16.03;14.40;;;19.00;38.80;;;;;;5027677;28;20927;-74
2022/03/04 11:08:16;;;;;;;14.83;13.40;;;18.90;39.20;;;;;;5040890;28;20688;-75
2022/03/04 11:10:42;;;;;;;17.00;15.50;;;19.00;39.20;;;;;;5044470;28;21012;-75
2022/03/04 11:13:09;;;;;;;16.37;14.77;;;18.80;38.00;;;;;;5044575;28;20693;-75
2022/03/04 11:15:36;;;;;;;16.23;14.63;;;18.70;38.40;;;;;;5044387;28;20564;-75
2022/03/04 11:18:09;;;;;;;16.17;14.53;;;18.90;38.50;;;;;;5041644;28;20592;-75
2022/03/04 11:20:36;;;;;;;19.03;16.93;;;19.00;38.60;;;;;;5017754;28;20714;-75
2022/03/04 11:23:03;;;;;;;16.83;15.17;;;19.40;38.00;;;;;;5039690;28;21162;-75
2022/03/04 11:25:43;;;;;;;18.70;16.80;;;19.60;38.60;;;;;;5044080;28;20653;-75
2022/03/04 11:28:12;;;;;;;15.63;14.03;;;19.40;37.10;;;;;;5041487;28;20568;-76
2022/03/04 11:30:44;;;;;;;13.53;11.87;;;19.20;37.70;;;;;;5042942;28;20588;-74
2022/03/04 11:33:16;;;;;;;18.40;16.60;;;19.30;38.40;;;;;;5044472;28;20740;-75
2022/03/04 11:35:42;;;;;;;14.27;12.90;;;19.30;37.10;;;;;;5038825;28;21160;-75
2022/03/04 11:38:11;;;;;;;14.73;13.20;;;19.50;38.60;;;;;;5040547;28;20661;-76
2022/03/04 11:40:48;;;;;;;15.50;14.00;;;19.80;38.70;;;;;;5024710;28;20211;-75
2022/03/04 11:43:17;;;;;;;13.07;11.63;;;19.70;38.30;;;;;;5051149;28;20609;-76
2022/03/04 11:45:42;;;;;;;15.77;14.20;;;19.80;38.70;;;;;;5041476;28;20679;-75
2022/03/04 11:48:12;;;;;;;13.80;12.50;;;20.10;38.90;;;;;;5042428;28;20593;-75
2022/03/04 11:50:52;;;;;;;15.70;14.00;;;20.30;39.00;;;;;;5044897;28;20223;-75
2022/03/04 11:53:22;;;;;;;15.83;14.30;;;20.50;37.30;;;;;;5038906;28;20638;-75
2022/03/04 11:56:14;;;;;;;15.47;13.87;;;20.30;37.90;;;;;;5044278;28;21158;-75
2022/03/04 11:59:04;;;;;;;19.42;17.40;;;19.90;37.00;;;;;;5039906;28;20700;-74
2022/03/04 12:01:35;;;;;;;14.90;13.40;;;19.50;35.60;;;;;;5035242;28;20768;-75
2022/03/04 12:04:05;;;;;;;14.40;13.07;;;19.50;37.00;;;;;;5018016;28;20572;-74
2022/03/04 12:06:31;;;;;;;15.50;14.10;;;19.70;37.30;;;;;;5042382;28;20575;-74
2022/03/04 12:09:28;;;;;;;17.47;15.70;;;19.80;37.60;;;;;;5043091;28;20568;-75
2022/03/04 12:12:24;;;;;;;16.33;14.63;;;19.50;35.40;;;;;;5039036;28;20636;-75
2022/03/04 12:15:15;;;;;;;18.65;16.65;;;19.20;36.20;;;;;;5039050;28;20755;-75
2022/03/04 12:17:59;;;;;;;13.70;12.30;;;19.20;35.70;;;;;;5043234;28;20188;-75
2022/03/04 12:20:53;;;;;;;15.80;12.07;;;19.20;36.30;;;;;;5042886;28;20583;-76
2022/03/04 12:23:26;;;;;;;13.27;11.87;;;19.10;35.50;;;;;;5023190;28;20581;-75
2022/03/04 12:25:54;;;;;;;13.13;11.83;;;19.00;36.10;;;;;;5040883;28;20684;-75
2022/03/04 12:28:21;;;;;;;14.60;12.80;;;18.90;35.50;;;;;;5045577;28;20576;-75
2022/03/04 12:31:07;;;;;;;12.55;11.35;;;18.80;35.70;;;;;;5047237;28;20704;-75
2022/03/04 12:33:40;;;;;;;13.30;12.00;;;18.70;34.20;;;;;;5040753;28;20673;-75
2022/03/04 12:36:12;;;;;;;13.60;12.30;;;18.60;35.30;;;;;;5041566;28;20587;-75
2022/03/04 12:38:49;;;;;;;13.47;12.13;;;18.50;34.70;;;;;;5041720;28;20643;-75
2022/03/04 12:41:16;;;;;;;13.90;12.50;;;18.30;35.10;;;;;;5042614;28;20607;-75
2022/03/04 12:43:51;;;;;;;13.63;12.23;;;18.30;34.50;;;;;;5024757;28;20577;-75